Time;durP1;ratioP1;P1;durP2;ratioP2;P2;SDS_P1;SDS_P2;PMS_P1;PMS_P2;Temp;Humidity;BMP_temperature;BMP_pressure;BME280_temperature;BME280_humidity;BME280_pressure;Samples;Min_cycle;Max_cycle;Signal;HPM_P1;HPM_P2
2022/06/23 00:00:26;;;;;;;10.17;4.67;;;21.30;54.80;;;;;;5037128;28;20417;-89
2022/06/23 00:02:53;;;;;;;6.83;4.23;;;21.30;54.50;;;;;;5029637;28;20952;-89
2022/06/23 00:05:23;;;;;;;7.43;4.03;;;21.30;54.50;;;;;;5042060;28;20475;-89
2022/06/23 00:07:57;;;;;;;6.80;4.20;;;21.20;54.50;;;;;;5040974;28;20498;-89
2022/06/23 00:10:28;;;;;;;7.97;4.57;;;21.20;54.50;;;;;;5050126;28;20420;-88
2022/06/23 00:12:54;;;;;;;10.93;4.47;;;21.10;54.50;;;;;;5042735;28;20523;-89
2022/06/23 00:15:38;;;;;;;5.67;4.70;;;21.00;54.60;;;;;;5039123;28;20435;-87
2022/06/23 00:18:18;;;;;;;5.50;4.23;;;21.00;54.90;;;;;;5037104;28;20642;-89
2022/06/23 00:20:55;;;;;;;6.00;4.40;;;20.90;55.20;;;;;;5038230;28;20424;-89
2022/06/23 00:23:30;;;;;;;8.10;4.23;;;20.80;55.20;;;;;;5038715;28;20428;-88
2022/06/23 00:26:12;;;;;;;6.00;4.10;;;20.90;55.30;;;;;;5027705;28;20440;-89
2022/06/23 00:28:52;;;;;;;11.47;5.10;;;20.80;55.20;;;;;;5036628;28;20420;-90
2022/06/23 00:31:36;;;;;;;5.70;4.35;;;20.80;55.10;;;;;;5026139;28;20416;-89
2022/06/23 00:34:12;;;;;;;10.00;5.43;;;20.80;55.50;;;;;;5040980;28;20178;-90
2022/06/23 00:36:43;;;;;;;15.30;4.70;;;20.80;55.40;;;;;;5051164;28;20463;-88
2022/06/23 00:39:38;;;;;;;5.37;4.63;;;20.80;55.20;;;;;;5051377;28;20416;-88
2022/06/23 00:42:25;;;;;;;8.05;4.95;;;20.70;55.60;;;;;;5032884;28;20421;-88
2022/06/23 00:45:09;;;;;;;7.53;4.75;;;20.70;55.80;;;;;;5038823;28;20209;-88
2022/06/23 00:47:44;;;;;;;9.57;5.05;;;20.60;55.80;;;;;;5035502;28;20251;-89
2022/06/23 00:50:38;;;;;;;8.13;4.90;;;20.60;55.70;;;;;;5037230;28;20643;-88
2022/06/23 00:53:13;;;;;;;7.95;4.43;;;20.50;55.80;;;;;;5036127;28;20189;-87
2022/06/23 00:56:19;;;;;;;6.40;4.20;;;20.60;55.70;;;;;;5037063;28;20202;-88
2022/06/23 00:58:44;;;;;;;5.43;4.60;;;20.50;56.20;;;;;;5048961;28;20424;-88
2022/06/23 01:01:17;;;;;;;7.03;4.97;;;20.50;56.10;;;;;;5054610;28;20710;-87
2022/06/23 01:04:41;;;;;;;5.57;4.60;;;20.40;56.30;;;;;;5034576;28;20265;-88
2022/06/23 01:07:25;;;;;;;7.72;5.25;;;20.40;56.50;;;;;;4982315;28;20182;-87
2022/06/23 01:10:10;;;;;;;9.05;5.05;;;20.40;56.10;;;;;;5023971;28;20166;-89
2022/06/23 01:12:47;;;;;;;5.40;4.85;;;20.40;56.90;;;;;;5035616;28;20185;-88
2022/06/23 01:15:31;;;;;;;6.05;5.28;;;20.40;56.10;;;;;;5033977;28;20213;-88
2022/06/23 01:18:02;;;;;;;6.07;4.65;;;20.40;56.10;;;;;;5033318;28;20197;-87
2022/06/23 01:20:50;;;;;;;7.65;4.80;;;20.40;56.00;;;;;;5033938;28;20166;-89
2022/06/23 01:23:54;;;;;;;5.45;4.85;;;20.40;56.10;;;;;;5018172;28;20662;-89
2022/06/23 01:27:01;;;;;;;5.35;4.13;;;20.50;55.30;;;;;;5034189;28;20264;-89
2022/06/23 01:29:51;;;;;;;6.60;4.53;;;20.50;55.40;;;;;;5014482;28;20189;-89
2022/06/23 01:32:40;;;;;;;8.50;4.32;;;20.50;54.80;;;;;;5034362;28;20451;-88
2022/06/23 01:35:18;;;;;;;7.50;4.50;;;20.60;54.10;;;;;;5019800;28;20213;-89
2022/06/23 01:37:56;;;;;;;8.73;4.63;;;20.60;53.80;;;;;;5028924;28;20467;-89
2022/06/23 01:40:45;;;;;;;7.13;4.00;;;20.60;53.90;;;;;;5036798;28;20431;-90
2022/06/23 01:43:24;;;;;;;7.43;4.40;;;20.70;53.60;;;;;;5037793;28;20504;-90
2022/06/23 01:46:01;;;;;;;5.60;4.10;;;20.60;53.70;;;;;;5051921;28;20427;-89
2022/06/23 01:48:52;;;;;;;5.83;4.30;;;20.70;53.40;;;;;;5038338;28;20417;-90
2022/06/23 01:51:23;;;;;;;5.30;4.27;;;20.60;53.20;;;;;;5030143;28;20951;-90
2022/06/23 01:53:52;;;;;;;5.70;4.30;;;20.70;53.20;;;;;;5025633;28;20427;-90
2022/06/23 01:56:33;;;;;;;8.17;4.77;;;20.70;53.00;;;;;;5035264;28;20602;-90
2022/06/23 01:59:10;;;;;;;8.70;3.73;;;20.70;52.50;;;;;;5033481;28;20428;-89
2022/06/23 02:01:56;;;;;;;5.50;4.77;;;20.70;52.80;;;;;;5035481;28;20435;-89
2022/06/23 02:04:33;;;;;;;4.40;4.00;;;20.70;52.50;;;;;;5033725;28;20538;-89
2022/06/23 02:07:25;;;;;;;4.80;4.27;;;20.70;52.10;;;;;;5019347;28;20420;-89
2022/06/23 02:09:53;;;;;;;5.43;3.90;;;20.70;52.10;;;;;;5033848;28;20409;-90
2022/06/23 02:12:35;;;;;;;5.40;4.33;;;20.70;52.00;;;;;;5034902;28;20429;-88
2022/06/23 02:15:20;;;;;;;5.23;4.10;;;20.70;51.80;;;;;;5018649;28;20452;-88
2022/06/23 02:17:57;;;;;;;6.60;4.20;;;20.70;52.00;;;;;;5033068;28;20460;-88
2022/06/23 02:20:35;;;;;;;9.20;4.18;;;20.60;52.70;;;;;;5034161;28;20511;-89
2022/06/23 02:23:12;;;;;;;4.97;3.77;;;20.60;52.00;;;;;;5026652;28;20178;-88
2022/06/23 02:25:46;;;;;;;7.83;3.97;;;20.60;51.80;;;;;;5034210;28;20451;-88
2022/06/23 02:28:21;;;;;;;5.65;4.20;;;20.60;51.90;;;;;;5034104;28;20459;-88
2022/06/23 02:30:54;;;;;;;6.05;4.20;;;20.60;51.80;;;;;;5035027;28;20189;-89
2022/06/23 02:33:29;;;;;;;5.00;4.50;;;20.50;51.80;;;;;;5034246;28;20186;-89
2022/06/23 02:36:05;;;;;;;5.83;3.93;;;20.50;52.20;;;;;;5034052;28;20236;-88
2022/06/23 02:38:37;;;;;;;4.90;4.23;;;20.50;52.30;;;;;;5034727;28;20412;-89
2022/06/23 02:41:15;;;;;;;7.17;4.60;;;20.50;52.40;;;;;;5033593;28;20421;-88
2022/06/23 02:43:45;;;;;;;5.93;3.80;;;20.50;52.50;;;;;;5034404;28;20417;-89
2022/06/23 02:46:33;;;;;;;4.23;3.53;;;20.50;52.30;;;;;;5034963;28;20421;-88
2022/06/23 02:49:22;;;;;;;4.67;3.90;;;20.60;52.20;;;;;;5033493;28;20812;-88
2022/06/23 02:52:23;;;;;;;5.70;4.23;;;20.60;52.20;;;;;;5035518;28;20413;-88
2022/06/23 02:54:53;;;;;;;4.63;4.20;;;20.40;52.50;;;;;;5019087;28;20439;-89
2022/06/23 02:57:22;;;;;;;9.15;4.97;;;20.40;52.40;;;;;;5022536;28;20460;-89
2022/06/23 02:59:59;;;;;;;4.30;3.90;;;20.30;52.70;;;;;;5038478;28;20654;-89
2022/06/23 03:02:33;;;;;;;6.55;3.22;;;20.30;53.00;;;;;;5031482;28;20435;-88
2022/06/23 03:05:06;;;;;;;5.10;4.20;;;20.20;53.40;;;;;;5037208;28;20217;-87
2022/06/23 03:07:50;;;;;;;4.30;3.90;;;20.20;53.30;;;;;;5039624;28;20166;-89
2022/06/23 03:10:51;;;;;;;4.97;3.70;;;20.20;53.30;;;;;;5034878;28;20430;-88
2022/06/23 03:13:20;;;;;;;6.50;4.25;;;20.10;53.80;;;;;;5029955;28;20170;-89
2022/06/23 03:15:52;;;;;;;6.00;4.63;;;20.10;53.90;;;;;;5036685;28;20206;-88
2022/06/23 03:18:50;;;;;;;5.30;4.75;;;20.00;54.10;;;;;;5038157;28;21012;-89
2022/06/23 03:22:02;;;;;;;6.95;4.68;;;20.00;54.20;;;;;;5035926;28;20212;-89
2022/06/23 03:24:51;;;;;;;6.63;4.85;;;19.90;54.50;;;;;;5021177;28;20201;-88
2022/06/23 03:27:34;;;;;;;5.70;4.57;;;19.90;54.60;;;;;;5038562;28;21680;-89
2022/06/23 03:30:13;;;;;;;9.05;4.78;;;19.90;54.70;;;;;;5040973;28;20201;-89
2022/06/23 03:32:54;;;;;;;8.88;4.65;;;19.80;54.90;;;;;;5022077;28;20194;-89
2022/06/23 03:35:24;;;;;;;5.93;4.97;;;19.80;55.10;;;;;;5039467;28;20217;-89
2022/06/23 03:38:01;;;;;;;5.80;5.20;;;19.80;55.30;;;;;;5057244;28;20214;-88
2022/06/23 03:43:32;;;;;;;5.18;4.68;;;19.70;55.50;;;;;;5044151;28;20364;-89
2022/06/23 03:46:04;;;;;;;19.98;5.03;;;19.70;55.50;;;;;;5042838;28;20300;-89
2022/06/23 03:48:43;;;;;;;5.38;4.60;;;19.70;55.60;;;;;;5035717;28;20201;-89
2022/06/23 03:51:19;;;;;;;6.00;4.00;;;19.70;55.40;;;;;;5053665;28;20185;-87
2022/06/23 03:53:56;;;;;;;7.57;5.05;;;19.70;55.10;;;;;;5041754;28;20186;-89
2022/06/23 03:56:26;;;;;;;5.30;4.40;;;19.70;55.30;;;;;;5049584;28;20209;-89
2022/06/23 03:59:04;;;;;;;4.38;3.97;;;19.70;55.20;;;;;;5053418;28;20649;-89
2022/06/23 04:01:39;;;;;;;5.63;4.85;;;19.70;55.30;;;;;;5043553;28;20676;-88
2022/06/23 04:04:20;;;;;;;4.93;4.10;;;19.80;54.60;;;;;;5036955;28;20725;-90
2022/06/23 04:06:51;;;;;;;4.63;3.95;;;19.80;54.60;;;;;;5034689;28;20189;-88
2022/06/23 04:09:22;;;;;;;6.05;4.28;;;19.80;54.70;;;;;;5036404;28;20190;-88
2022/06/23 04:12:00;;;;;;;5.90;4.25;;;19.80;54.50;;;;;;5036583;28;20245;-88
2022/06/23 04:14:41;;;;;;;5.70;4.40;;;19.80;54.10;;;;;;5034714;28;20550;-89
2022/06/23 04:17:25;;;;;;;4.88;4.38;;;19.80;54.10;;;;;;5034807;28;20205;-89
2022/06/23 04:20:18;;;;;;;10.40;4.72;;;19.80;53.90;;;;;;5035671;28;20277;-89
2022/06/23 04:23:22;;;;;;;6.10;5.03;;;19.80;53.90;;;;;;5011756;28;20174;-89
2022/06/23 04:26:14;;;;;;;6.93;4.70;;;19.90;53.80;;;;;;5019366;28;20579;-89
2022/06/23 04:28:46;;;;;;;8.32;5.18;;;19.90;54.10;;;;;;5035839;28;20261;-90
2022/06/23 04:31:36;;;;;;;7.00;4.13;;;19.90;53.80;;;;;;5036413;28;20642;-89
2022/06/23 04:34:03;;;;;;;16.38;4.50;;;19.90;53.80;;;;;;5023444;28;20658;-89
2022/06/23 04:36:33;;;;;;;7.93;5.17;;;19.90;53.80;;;;;;5038797;28;20213;-89
2022/06/23 04:39:45;;;;;;;6.70;4.22;;;19.90;53.70;;;;;;5038907;28;20429;-89
2022/06/23 04:42:23;;;;;;;4.80;4.40;;;19.90;54.00;;;;;;5034253;28;20188;-90
2022/06/23 04:45:12;;;;;;;6.78;4.53;;;20.10;53.40;;;;;;5036042;28;20197;-89
2022/06/23 04:47:41;;;;;;;6.70;5.30;;;20.10;53.20;;;;;;5035346;28;20189;-89
2022/06/23 04:50:16;;;;;;;6.90;5.47;;;20.10;53.20;;;;;;5019480;28;20181;-89
2022/06/23 04:52:51;;;;;;;6.63;4.47;;;20.10;53.30;;;;;;5036382;28;20196;-89
2022/06/23 04:55:25;;;;;;;7.82;5.15;;;20.20;52.80;;;;;;5036035;28;20629;-89
2022/06/23 04:58:01;;;;;;;5.55;3.88;;;20.20;53.20;;;;;;5033053;28;20233;-88
2022/06/23 05:00:37;;;;;;;10.55;4.57;;;20.30;53.10;;;;;;5036477;28;20172;-88
2022/06/23 05:03:26;;;;;;;7.28;5.43;;;20.30;53.00;;;;;;5016077;28;20201;-88
2022/06/23 05:06:16;;;;;;;6.67;4.90;;;20.50;52.60;;;;;;5040514;28;20220;-88
2022/06/23 05:08:45;;;;;;;5.90;4.50;;;20.60;52.40;;;;;;5033805;28;20516;-88
2022/06/23 05:11:25;;;;;;;7.80;4.67;;;20.70;52.40;;;;;;5035534;28;20443;-88
2022/06/23 05:14:00;;;;;;;8.40;4.97;;;20.80;52.90;;;;;;5035690;28;20451;-89
2022/06/23 05:16:36;;;;;;;5.13;4.33;;;21.10;51.00;;;;;;5034159;28;20877;-87
2022/06/23 05:19:12;;;;;;;6.23;4.73;;;21.30;50.90;;;;;;5019942;28;20417;-88
2022/06/23 05:21:49;;;;;;;7.60;4.30;;;22.00;49.80;;;;;;5038450;28;20428;-88
2022/06/23 05:24:26;;;;;;;5.77;3.90;;;23.00;46.70;;;;;;5033735;28;20496;-89
2022/06/23 05:27:13;;;;;;;5.30;4.40;;;24.00;43.90;;;;;;5042918;28;20455;-88
2022/06/23 05:29:49;;;;;;;4.83;4.03;;;24.90;41.50;;;;;;5034798;28;20459;-90
2022/06/23 05:32:21;;;;;;;6.60;4.87;;;25.60;39.00;;;;;;5029204;28;20427;-87
2022/06/23 05:35:25;;;;;;;4.50;4.00;;;26.00;37.60;;;;;;5035533;28;20459;-90
2022/06/23 05:38:18;;;;;;;5.03;4.50;;;26.60;37.00;;;;;;5023417;28;20500;-90
2022/06/23 05:40:56;;;;;;;7.63;4.23;;;27.50;35.50;;;;;;5035474;28;20416;-89
2022/06/23 05:43:22;;;;;;;5.10;4.60;;;28.10;34.20;;;;;;5021881;28;20404;-89
2022/06/23 05:45:58;;;;;;;8.30;5.63;;;28.40;32.30;;;;;;5044534;28;20415;-88
2022/06/23 05:48:38;;;;;;;5.57;4.97;;;28.30;32.20;;;;;;5040397;28;20423;-88
2022/06/23 05:51:10;;;;;;;6.57;4.13;;;28.10;32.70;;;;;;5036052;28;20419;-90
2022/06/23 05:54:02;;;;;;;5.83;4.90;;;28.10;33.10;;;;;;5035984;28;20438;-89
2022/06/23 05:56:35;;;;;;;4.80;4.33;;;27.80;33.10;;;;;;5053415;28;20445;-88
2022/06/23 05:59:15;;;;;;;6.20;4.67;;;28.00;33.90;;;;;;5041145;28;20409;-89
2022/06/23 06:01:48;;;;;;;6.53;5.10;;;28.10;33.20;;;;;;5035926;28;20753;-89
2022/06/23 06:04:18;;;;;;;7.10;5.10;;;28.00;33.60;;;;;;5035215;28;20970;-90
2022/06/23 06:06:45;;;;;;;5.23;4.53;;;27.90;33.60;;;;;;5035739;28;20440;-88
2022/06/23 06:12:01;;;;;;;4.30;3.90;;;28.00;34.70;;;;;;5035861;28;20465;-90
2022/06/23 06:14:31;;;;;;;6.27;4.60;;;28.20;34.90;;;;;;5022229;28;20481;-88
2022/06/23 06:16:59;;;;;;;7.40;4.70;;;28.50;34.50;;;;;;5036610;28;20459;-90
2022/06/23 06:19:29;;;;;;;6.47;5.30;;;28.60;33.90;;;;;;5038506;28;20910;-89
2022/06/23 06:21:57;;;;;;;10.27;4.80;;;28.70;33.60;;;;;;5038333;28;20407;-89
2022/06/23 06:24:39;;;;;;;7.43;5.33;;;28.80;33.60;;;;;;5036567;28;20415;-89
2022/06/23 06:27:11;;;;;;;6.77;4.90;;;28.80;33.70;;;;;;5037746;28;20470;-89
2022/06/23 06:29:40;;;;;;;6.40;5.13;;;28.80;34.10;;;;;;5040927;28;20416;-89
2022/06/23 06:32:21;;;;;;;4.93;4.40;;;28.90;33.80;;;;;;5032269;28;20433;-90
2022/06/23 06:35:13;;;;;;;5.87;4.97;;;29.20;34.30;;;;;;5053073;28;20411;-89
2022/06/23 06:37:43;;;;;;;6.00;3.90;;;29.50;33.70;;;;;;5048368;28;20471;-88
2022/06/23 06:40:11;;;;;;;7.17;4.10;;;29.90;33.30;;;;;;5037629;28;20508;-90
2022/06/23 06:42:46;;;;;;;4.70;3.80;;;30.10;33.60;;;;;;5036320;28;20959;-88
2022/06/23 06:45:15;;;;;;;4.97;4.20;;;30.30;33.10;;;;;;5036213;28;20438;-89
2022/06/23 06:47:44;;;;;;;7.23;4.70;;;30.40;33.50;;;;;;5030191;28;20421;-88
2022/06/23 06:50:24;;;;;;;5.33;4.30;;;30.60;33.40;;;;;;5029479;28;20462;-88
2022/06/23 06:52:51;;;;;;;9.40;4.37;;;30.50;34.40;;;;;;5037607;28;20532;-88
2022/06/23 06:55:35;;;;;;;6.30;4.60;;;30.40;35.20;;;;;;5048113;28;20455;-88
2022/06/23 06:58:01;;;;;;;8.20;5.20;;;30.50;35.80;;;;;;5042417;28;20431;-88
2022/06/23 07:01:01;;;;;;;5.70;4.50;;;30.30;35.90;;;;;;5037827;28;20443;-90
2022/06/23 07:03:28;;;;;;;6.10;4.20;;;29.90;36.70;;;;;;5031022;28;20181;-89
2022/06/23 07:05:59;;;;;;;11.37;6.10;;;29.40;38.10;;;;;;5036184;28;20452;-89
2022/06/23 07:08:37;;;;;;;6.00;4.40;;;29.60;38.20;;;;;;5040173;28;20625;-89
2022/06/23 07:11:06;;;;;;;6.83;5.23;;;29.60;38.30;;;;;;5040429;28;20395;-90
2022/06/23 07:13:38;;;;;;;9.53;5.50;;;29.40;39.10;;;;;;5036800;28;20436;-90
2022/06/23 07:16:16;;;;;;;8.13;5.27;;;29.50;39.30;;;;;;5041844;28;20502;-90
2022/06/23 07:18:49;;;;;;;7.40;5.13;;;29.40;39.70;;;;;;5028105;28;20424;-90
2022/06/23 07:21:19;;;;;;;13.37;6.70;;;29.30;40.40;;;;;;5026404;28;20453;-90
2022/06/23 07:24:12;;;;;;;7.33;5.43;;;29.40;40.90;;;;;;5041324;28;20395;-90
2022/06/23 07:26:44;;;;;;;11.00;5.37;;;29.40;41.70;;;;;;5020913;28;20464;-89
2022/06/23 07:29:40;;;;;;;6.67;4.50;;;29.30;42.70;;;;;;5037600;28;20411;-90
2022/06/23 07:32:12;;;;;;;9.57;5.60;;;29.30;43.20;;;;;;5035779;28;20419;-88
2022/06/23 07:34:45;;;;;;;6.90;5.20;;;29.20;43.50;;;;;;5037223;28;20993;-88
2022/06/23 07:37:22;;;;;;;5.43;4.77;;;28.90;44.00;;;;;;5039050;28;20435;-88
2022/06/23 07:39:55;;;;;;;7.20;4.70;;;28.60;45.10;;;;;;5018440;28;20842;-90
2022/06/23 07:42:35;;;;;;;8.10;6.37;;;28.40;46.00;;;;;;5021867;28;20379;-89
2022/06/23 07:45:08;;;;;;;7.17;4.97;;;28.20;48.00;;;;;;5043304;28;20433;-89
2022/06/23 07:47:34;;;;;;;6.40;5.63;;;27.90;48.10;;;;;;5040614;28;20414;-89
2022/06/23 07:50:01;;;;;;;12.07;6.90;;;27.70;49.20;;;;;;5030103;28;20431;-89
2022/06/23 07:52:27;;;;;;;11.83;6.80;;;27.60;50.00;;;;;;5045748;28;20172;-89
2022/06/23 07:55:02;;;;;;;9.57;7.03;;;27.50;50.60;;;;;;5041595;28;20535;-89
2022/06/23 07:57:30;;;;;;;13.23;7.17;;;27.50;51.10;;;;;;5038386;28;20209;-89
2022/06/23 08:00:01;;;;;;;13.70;8.23;;;27.40;51.90;;;;;;5042754;28;20446;-89
2022/06/23 08:02:42;;;;;;;9.70;8.40;;;27.10;53.10;;;;;;5045334;28;20441;-89
2022/06/23 08:05:31;;;;;;;11.63;8.37;;;27.00;54.10;;;;;;5030669;28;20453;-89
2022/06/23 08:07:57;;;;;;;12.47;8.23;;;26.90;53.60;;;;;;5036321;28;20432;-88
2022/06/23 08:10:41;;;;;;;9.37;8.33;;;26.90;54.30;;;;;;5037173;28;20432;-89
2022/06/23 08:13:19;;;;;;;13.27;7.27;;;26.90;54.50;;;;;;5028478;28;20177;-88
2022/06/23 08:18:53;;;;;;;11.17;7.30;;;26.80;55.20;;;;;;5038870;28;20455;-89
2022/06/23 08:21:21;;;;;;;15.57;8.00;;;26.90;55.40;;;;;;5038669;28;20397;-90
2022/06/23 08:24:02;;;;;;;11.47;9.07;;;26.90;55.40;;;;;;5037339;28;20412;-89
2022/06/23 08:26:29;;;;;;;13.30;7.47;;;26.90;55.40;;;;;;5037084;28;20511;-89
2022/06/23 08:29:00;;;;;;;8.03;7.20;;;27.00;55.80;;;;;;5028499;28;20433;-89
2022/06/23 08:31:27;;;;;;;17.70;8.13;;;27.10;55.90;;;;;;5036864;28;20429;-88
2022/06/23 08:33:59;;;;;;;11.87;7.43;;;27.20;55.10;;;;;;5037531;28;20432;-89
2022/06/23 08:36:32;;;;;;;11.57;7.90;;;27.30;54.50;;;;;;5036944;28;20955;-89
2022/06/23 08:39:08;;;;;;;13.93;8.80;;;27.30;54.70;;;;;;5038277;28;20425;-89
2022/06/23 08:41:53;;;;;;;11.93;7.77;;;27.30;55.00;;;;;;5039122;28;20432;-89
2022/06/23 08:44:53;;;;;;;10.80;7.53;;;27.40;55.00;;;;;;5029147;28;21072;-89
2022/06/23 08:47:29;;;;;;;11.13;6.67;;;27.50;55.10;;;;;;5024333;28;20446;-88
2022/06/23 08:50:21;;;;;;;9.50;6.67;;;27.40;54.70;;;;;;5039397;28;20505;-88
2022/06/23 08:53:06;;;;;;;10.90;6.80;;;27.40;54.80;;;;;;5039589;28;20405;-89
2022/06/23 08:56:00;;;;;;;8.60;7.70;;;27.60;54.90;;;;;;5037353;28;20927;-88
2022/06/23 08:58:50;;;;;;;10.53;7.43;;;27.90;54.70;;;;;;5023873;28;20471;-89
2022/06/23 09:01:26;;;;;;;7.30;6.60;;;28.00;54.40;;;;;;5022316;28;20962;-90
2022/06/23 09:04:14;;;;;;;11.20;7.10;;;28.10;54.50;;;;;;5037628;28;20717;-90
2022/06/23 09:06:44;;;;;;;9.43;6.63;;;28.20;53.90;;;;;;5037716;28;20461;-89
2022/06/23 09:09:36;;;;;;;8.20;6.97;;;28.30;54.50;;;;;;5038690;28;20570;-90
2022/06/23 09:12:29;;;;;;;8.53;6.47;;;28.20;54.60;;;;;;5037535;28;20424;-90
2022/06/23 09:15:19;;;;;;;10.87;8.00;;;28.20;54.50;;;;;;5037579;28;20445;-88
2022/06/23 09:18:08;;;;;;;9.83;6.40;;;27.80;54.10;;;;;;5050215;28;20432;-89
2022/06/23 09:21:00;;;;;;;9.80;7.63;;;27.70;54.20;;;;;;5033666;28;20414;-89
2022/06/23 09:23:57;;;;;;;8.07;7.27;;;28.00;54.70;;;;;;5039729;28;20449;-89
2022/06/23 09:26:44;;;;;;;14.63;7.63;;;28.30;54.90;;;;;;5041401;28;20421;-89
2022/06/23 09:29:27;;;;;;;8.60;6.70;;;28.30;52.70;;;;;;5039767;28;20489;-89
2022/06/23 09:32:12;;;;;;;6.43;5.70;;;28.40;52.10;;;;;;5051119;28;20484;-88
2022/06/23 09:35:10;;;;;;;8.80;6.40;;;28.40;51.90;;;;;;5048029;28;20607;-88
2022/06/23 09:37:54;;;;;;;9.60;6.43;;;28.20;52.90;;;;;;5025078;28;20885;-90
2022/06/23 09:40:55;;;;;;;6.60;5.60;;;28.40;52.50;;;;;;5020515;28;20410;-90
2022/06/23 09:43:32;;;;;;;5.87;5.37;;;28.30;52.40;;;;;;5023644;28;20477;-89
2022/06/23 09:46:22;;;;;;;7.13;6.53;;;28.20;52.90;;;;;;5037707;28;20447;-90
2022/06/23 09:49:14;;;;;;;9.00;6.40;;;28.40;52.20;;;;;;5043162;28;20500;-89
2022/06/23 09:52:12;;;;;;;7.00;6.40;;;28.70;50.10;;;;;;5016612;28;20452;-87
2022/06/23 09:55:00;;;;;;;7.23;6.13;;;28.80;49.30;;;;;;5021367;28;20514;-87
2022/06/23 09:57:48;;;;;;;8.43;7.03;;;28.70;49.10;;;;;;5002110;28;20446;-90
2022/06/23 10:00:20;;;;;;;6.90;6.20;;;28.70;49.10;;;;;;5037326;28;20395;-89
2022/06/23 10:03:00;;;;;;;7.37;6.67;;;28.60;50.90;;;;;;5031686;28;20488;-90
2022/06/23 10:05:26;;;;;;;7.00;5.67;;;28.50;51.30;;;;;;5045836;28;20898;-88
2022/06/23 10:08:14;;;;;;;7.20;6.03;;;28.50;51.40;;;;;;5028243;28;20548;-89
2022/06/23 10:10:49;;;;;;;7.47;5.63;;;28.60;50.90;;;;;;5028280;28;20544;-89
2022/06/23 10:13:33;;;;;;;7.23;5.80;;;28.40;51.50;;;;;;5035392;28;20974;-88
2022/06/23 10:16:40;;;;;;;5.10;4.70;;;28.30;51.50;;;;;;5034933;28;20424;-87
2022/06/23 10:19:39;;;;;;;6.10;5.50;;;28.20;51.40;;;;;;5035959;28;20722;-88
2022/06/23 10:22:26;;;;;;;6.87;6.20;;;28.20;51.60;;;;;;5034922;28;20409;-89
2022/06/23 10:25:13;;;;;;;7.33;5.90;;;28.50;49.70;;;;;;5027256;28;20494;-88
2022/06/23 10:28:02;;;;;;;6.40;5.77;;;28.60;50.70;;;;;;5036762;28;20504;-90
2022/06/23 10:30:45;;;;;;;5.70;5.03;;;28.70;50.40;;;;;;5026533;28;20453;-90
2022/06/23 10:33:36;;;;;;;8.70;5.83;;;28.80;50.60;;;;;;5032055;28;20417;-89
2022/06/23 10:36:20;;;;;;;6.87;4.80;;;29.10;49.90;;;;;;5032025;28;20494;-90
2022/06/23 10:39:04;;;;;;;7.73;5.80;;;29.20;48.10;;;;;;5033830;28;20463;-89
2022/06/23 10:41:51;;;;;;;7.73;5.30;;;29.10;48.20;;;;;;5035930;28;20439;-90
2022/06/23 10:44:47;;;;;;;8.10;5.80;;;29.10;48.60;;;;;;5035115;28;20490;-90
2022/06/23 10:47:35;;;;;;;6.03;5.43;;;29.00;48.70;;;;;;5029049;28;20559;-90
2022/06/23 10:50:16;;;;;;;6.53;5.90;;;28.90;48.90;;;;;;5035670;28;20418;-89
2022/06/23 10:53:18;;;;;;;9.97;5.83;;;28.80;49.00;;;;;;5030626;28;20412;-89
2022/06/23 10:56:02;;;;;;;10.20;6.13;;;28.60;49.60;;;;;;5036345;28;20444;-90
2022/06/23 10:58:34;;;;;;;10.17;6.30;;;28.60;50.00;;;;;;5038866;28;20479;-88
2022/06/23 11:01:14;;;;;;;6.70;6.00;;;28.60;50.00;;;;;;5038910;28;20435;-90
2022/06/23 11:04:01;;;;;;;9.47;6.07;;;28.60;50.00;;;;;;5041324;28;20408;-89
2022/06/23 11:06:45;;;;;;;8.27;5.63;;;28.70;49.00;;;;;;5032907;28;20424;-90
2022/06/23 11:09:13;;;;;;;7.50;4.83;;;28.70;49.20;;;;;;5033425;28;20403;-87
2022/06/23 11:12:03;;;;;;;9.27;5.80;;;28.80;48.90;;;;;;5033708;28;20401;-88
2022/06/23 11:14:35;;;;;;;8.20;5.93;;;28.80;48.80;;;;;;5033024;28;20429;-90
2022/06/23 11:17:34;;;;;;;8.43;5.40;;;28.90;47.90;;;;;;5035880;28;20456;-89
2022/06/23 11:20:30;;;;;;;6.20;4.90;;;28.90;47.50;;;;;;5036411;28;20421;-89
2022/06/23 11:23:33;;;;;;;5.90;5.30;;;29.00;48.40;;;;;;5038126;28;20487;-89
2022/06/23 11:26:13;;;;;;;7.57;5.00;;;28.90;48.40;;;;;;5037952;28;20436;-89
2022/06/23 11:28:39;;;;;;;5.50;5.00;;;28.90;48.00;;;;;;5036141;28;20480;-89
2022/06/23 11:31:20;;;;;;;5.80;4.90;;;28.80;48.40;;;;;;5035849;28;21066;-88
2022/06/23 11:33:52;;;;;;;5.30;4.37;;;28.90;46.00;;;;;;5036339;28;20178;-89
2022/06/23 11:36:27;;;;;;;5.67;4.80;;;29.00;47.30;;;;;;5036297;28;20427;-89
2022/06/23 11:39:25;;;;;;;7.00;5.17;;;29.20;45.80;;;;;;5037182;28;20428;-89
2022/06/23 11:41:53;;;;;;;7.83;4.67;;;29.20;45.90;;;;;;5037704;28;20439;-89
2022/06/23 11:44:46;;;;;;;7.13;4.93;;;29.20;46.70;;;;;;5037818;28;20458;-88
2022/06/23 11:47:27;;;;;;;6.93;4.37;;;29.30;47.20;;;;;;5032047;28;20391;-90
2022/06/23 11:49:58;;;;;;;4.60;4.20;;;29.30;47.00;;;;;;5038756;28;20435;-89
2022/06/23 11:52:44;;;;;;;8.20;4.30;;;29.30;45.10;;;;;;5039393;28;20589;-88
2022/06/23 11:55:28;;;;;;;6.00;5.30;;;29.20;44.90;;;;;;5038501;28;20781;-88
2022/06/23 11:58:01;;;;;;;4.63;4.03;;;29.20;45.30;;;;;;5038397;28;20462;-88
2022/06/23 12:00:51;;;;;;;5.97;4.40;;;29.10;45.80;;;;;;5040458;28;20431;-90
2022/06/23 12:03:55;;;;;;;7.30;4.43;;;29.20;46.10;;;;;;5024672;28;20420;-90
2022/06/23 12:06:32;;;;;;;6.00;4.33;;;29.30;45.70;;;;;;5040790;28;20414;-90
2022/06/23 12:09:10;;;;;;;5.40;4.90;;;29.20;46.40;;;;;;5043072;28;20387;-89
2022/06/23 12:11:37;;;;;;;7.27;5.80;;;29.20;46.30;;;;;;5038788;28;20421;-90
2022/06/23 12:14:08;;;;;;;5.93;4.00;;;29.40;45.20;;;;;;5037296;28;20404;-87
2022/06/23 12:16:43;;;;;;;8.10;5.03;;;29.40;44.90;;;;;;5037895;28;20483;-90
2022/06/23 12:19:15;;;;;;;5.47;4.47;;;29.40;44.80;;;;;;5018923;28;20413;-88
2022/06/23 12:22:03;;;;;;;8.80;5.23;;;29.40;44.90;;;;;;5034285;28;20410;-88
2022/06/23 12:24:39;;;;;;;7.57;4.40;;;29.50;44.10;;;;;;5027247;28;20437;-89
2022/06/23 12:27:29;;;;;;;8.33;4.73;;;29.50;44.30;;;;;;5023570;28;20411;-89
2022/06/23 12:30:07;;;;;;;5.10;4.40;;;29.60;44.30;;;;;;5029144;28;20478;-88
2022/06/23 12:32:52;;;;;;;5.00;4.07;;;29.70;44.30;;;;;;5039084;28;20384;-89
2022/06/23 12:35:38;;;;;;;4.73;4.10;;;29.70;44.20;;;;;;5044412;28;20427;-88
2022/06/23 12:38:26;;;;;;;5.40;4.50;;;29.70;43.70;;;;;;5056305;28;20439;-88
2022/06/23 12:41:15;;;;;;;4.60;3.67;;;30.00;43.00;;;;;;5037538;28;20395;-88
2022/06/23 12:43:52;;;;;;;6.10;3.80;;;29.90;42.20;;;;;;5035700;28;20383;-89
2022/06/23 12:46:39;;;;;;;8.23;4.57;;;29.70;42.30;;;;;;5035069;28;20481;-90
2022/06/23 12:49:05;;;;;;;4.60;4.13;;;29.70;43.10;;;;;;5035306;28;20420;-89
2022/06/23 12:55:20;;;;;;;7.40;3.93;;;29.80;40.80;;;;;;5016546;28;20221;-89
2022/06/23 12:58:01;;;;;;;7.07;3.83;;;30.00;41.40;;;;;;5031181;28;20518;-89
2022/06/23 13:01:01;;;;;;;6.83;4.10;;;30.00;41.10;;;;;;5024907;28;20399;-89
2022/06/23 13:03:50;;;;;;;4.27;3.57;;;30.00;41.00;;;;;;5035856;28;20864;-89
2022/06/23 13:06:38;;;;;;;4.83;4.07;;;30.00;40.90;;;;;;5025713;28;20414;-89
2022/06/23 13:09:13;;;;;;;3.90;3.60;;;29.90;40.60;;;;;;5015026;28;20389;-89
2022/06/23 13:11:47;;;;;;;7.20;4.33;;;29.80;42.30;;;;;;5021668;28;20428;-90
2022/06/23 13:14:24;;;;;;;4.43;3.47;;;30.00;41.60;;;;;;5034872;28;20414;-89
2022/06/23 13:17:23;;;;;;;7.47;5.67;;;30.20;40.80;;;;;;5036320;28;20460;-88
2022/06/23 13:20:19;;;;;;;8.60;4.10;;;30.20;40.40;;;;;;5036068;28;20873;-90
2022/06/23 13:23:19;;;;;;;5.10;3.80;;;30.20;40.30;;;;;;5034578;28;20440;-89
2022/06/23 13:25:51;;;;;;;7.40;4.10;;;30.10;40.80;;;;;;5003786;28;20417;-89
2022/06/23 13:28:29;;;;;;;5.60;4.23;;;30.10;41.10;;;;;;5024758;28;20395;-90
2022/06/23 13:30:59;;;;;;;5.13;3.23;;;30.10;41.40;;;;;;5035319;28;20529;-89
2022/06/23 13:33:46;;;;;;;7.77;3.40;;;30.10;41.40;;;;;;5035400;28;20992;-89
2022/06/23 13:36:24;;;;;;;4.33;3.83;;;30.00;41.30;;;;;;5036598;28;20944;-90
2022/06/23 13:39:17;;;;;;;6.23;3.60;;;30.10;40.70;;;;;;5027259;28;20399;-90
2022/06/23 13:42:14;;;;;;;5.30;4.20;;;30.10;41.50;;;;;;5020409;28;20394;-89
2022/06/23 13:45:19;;;;;;;4.50;3.93;;;30.20;40.50;;;;;;5035206;28;20448;-90
2022/06/23 13:48:21;;;;;;;5.60;4.00;;;30.20;40.80;;;;;;5025941;28;20423;-89
2022/06/23 13:51:07;;;;;;;5.40;3.63;;;30.10;41.00;;;;;;5034415;28;20395;-89
2022/06/23 13:53:49;;;;;;;4.60;3.43;;;30.00;41.30;;;;;;5033261;28;20923;-88
2022/06/23 13:56:16;;;;;;;5.60;4.40;;;29.40;43.10;;;;;;5038268;28;20425;-90
2022/06/23 13:58:50;;;;;;;4.70;2.80;;;29.40;42.40;;;;;;5036960;28;20438;-90
2022/06/23 14:01:37;;;;;;;4.13;3.73;;;29.60;42.30;;;;;;5037943;28;20416;-90
2022/06/23 14:04:13;;;;;;;3.97;3.63;;;29.50;42.10;;;;;;5038366;28;20449;-90
2022/06/23 14:07:04;;;;;;;3.93;3.33;;;29.50;41.90;;;;;;5038300;28;20431;-88